Bookmark and Share
Track history (hours):
 

Zenken Maru

Last reported at 2014-Apr-18 20:33 UTC. Time now 2014-Apr-18 20:49 UTC.
Position N 35°09' E 139°46'.

Length 98 m; draft 7.2 m.

Type: Cargo ship. MMSI: 431100955.

NotesDate/timePositionNaut miles runAvg speedWind from/ knotsBaromVisibWave heightAir tempDewpointWater temp
2014-Apr-18 20:33N 35°09' E 139°46'1110.9
2014-Apr-18 19:33N 34°58' E 139°43'1211.7
2014-Apr-18 18:33N 34°47' E 139°49'1110.7
2014-Apr-18 17:30N 34°37' E 139°56'17 0.5
2014-Apr-17 09:14N 34°52' E 139°47'710.5
2014-Apr-17 08:33N 34°58' E 139°43'1110.8
2014-Apr-17 07:33N 35°09' E 139°45'10 9.8
2014-Apr-17 06:33N 35°19' E 139°44'6 6.0
2014-Apr-17 05:33N 35°23' E 139°39'0 0.0
2014-Apr-17 04:31N 35°23' E 139°39'0 0.0
2014-Apr-17 03:31N 35°23' E 139°39'0 0.0
2014-Apr-17 02:31N 35°23' E 139°39'0 0.0
2014-Apr-17 01:31N 35°23' E 139°39'0 0.0
2014-Apr-17 00:31N 35°23' E 139°39'0 0.0
2014-Apr-16 23:31N 35°23' E 139°39'0 0.0
2014-Apr-16 22:10N 35°23' E 139°39'0 0.0
2014-Apr-16 21:07N 35°23' E 139°39'0 0.0
2014-Apr-16 19:31N 35°23' E 139°39'0 0.0
2014-Apr-16 18:13N 35°23' E 139°39'0 0.0
2014-Apr-16 17:13N 35°23' E 139°39'0 0.0
2014-Apr-16 16:25N 35°23' E 139°39'0 0.0
2014-Apr-16 14:31N 35°23' E 139°39'0 0.0
2014-Apr-16 13:25N 35°23' E 139°39'0 0.0
2014-Apr-16 11:19N 35°23' E 139°39'0 0.0
2014-Apr-16 10:31N 35°23' E 139°39'0 0.0
2014-Apr-16 08:31N 35°23' E 139°39'0 0.0
2014-Apr-16 07:22N 35°23' E 139°39'0 0.0
2014-Apr-16 05:31N 35°23' E 139°39'0 0.0
2014-Apr-16 04:19N 35°23' E 139°39'0 0.0
2014-Apr-16 02:31N 35°23' E 139°39'0 0.0
2014-Apr-16 01:25N 35°23' E 139°39'0 0.0
2014-Apr-16 00:19N 35°23' E 139°39'0 0.0
2014-Apr-15 23:31N 35°23' E 139°39'0 0.0
2014-Apr-15 22:22N 35°23' E 139°39'0 0.0
2014-Apr-15 21:19N 35°23' E 139°39'0 0.0
2014-Apr-15 20:31N 35°23' E 139°39'0 0.0
2014-Apr-15 19:22N 35°23' E 139°39'0 0.0
2014-Apr-15 18:22N 35°23' E 139°39'0 0.0
2014-Apr-15 17:31N 35°23' E 139°39'0 0.0
2014-Apr-15 16:31N 35°23' E 139°39'0 0.0
2014-Apr-15 15:31N 35°23' E 139°39'0 0.0
2014-Apr-15 14:31N 35°23' E 139°39'0 0.0
2014-Apr-15 12:32N 35°23' E 139°39'0 0.0
2014-Apr-15 11:32N 35°23' E 139°39'0 0.0
2014-Apr-15 10:32N 35°23' E 139°39'0 0.0
2014-Apr-15 09:32N 35°23' E 139°39'0 0.0
2014-Apr-15 08:32N 35°23' E 139°39'0 0.0
2014-Apr-15 06:32N 35°23' E 139°39'0 0.0
2014-Apr-15 05:32N 35°23' E 139°39'0 0.0
2014-Apr-15 03:32N 35°23' E 139°39'0 0.0
2014-Apr-15 02:32N 35°23' E 139°39'0 0.0
2014-Apr-15 01:32N 35°23' E 139°39'0 0.0
2014-Apr-15 00:32N 35°23' E 139°39'0 0.0
2014-Apr-14 23:32N 35°23' E 139°39'0 0.0
2014-Apr-14 22:32N 35°23' E 139°39'0 0.0
2014-Apr-14 21:31N 35°23' E 139°39'0 0.0
2014-Apr-14 20:31N 35°23' E 139°39'0 0.0
2014-Apr-14 19:31N 35°23' E 139°39'0 0.0
2014-Apr-14 18:31N 35°23' E 139°39'0 0.0
2014-Apr-14 17:31N 35°23' E 139°39'0 0.0
2014-Apr-14 16:31N 35°23' E 139°39'0 0.0
2014-Apr-14 15:31N 35°23' E 139°39'0 0.0
2014-Apr-14 14:31N 35°23' E 139°39'0 0.0
2014-Apr-14 13:31N 35°23' E 139°39'0 0.0
2014-Apr-14 11:31N 35°23' E 139°39'0 0.0
2014-Apr-14 10:31N 35°23' E 139°39'0 0.0
2014-Apr-14 09:31N 35°23' E 139°39'0 0.0
2014-Apr-14 08:31N 35°23' E 139°39'0 0.0
2014-Apr-14 07:31N 35°23' E 139°39'0 0.0
2014-Apr-14 06:31N 35°23' E 139°39'0 0.0
2014-Apr-14 05:31N 35°23' E 139°39'0 0.1
2014-Apr-13 22:34N 35°23' E 139°39'5 5.2
2014-Apr-13 21:33N 35°19' E 139°43'9 8.7
2014-Apr-13 20:33N 35°11' E 139°46'9 9.4
2014-Apr-13 19:33N 35°02' E 139°44'10 9.5
2014-Apr-13 18:33N 34°52' E 139°46'8 8.3
2014-Apr-13 17:33N 34°45' E 139°51'7 7.5
2014-Apr-13 16:33N 34°38' E 139°55'13 0.4
2014-Apr-12 10:20N 34°49' E 139°48'911.6
2014-Apr-12 09:33N 34°58' E 139°43'1110.8
2014-Apr-12 08:33N 35°08' E 139°45'1111.0
2014-Apr-12 07:34N 35°19' E 139°43'5 5.2
2014-Apr-12 06:32N 35°23' E 139°39'0 0.0
2014-Apr-12 05:32N 35°23' E 139°39'0 0.0
2014-Apr-12 04:32N 35°23' E 139°39'0 0.0
2014-Apr-12 03:32N 35°23' E 139°39'0 0.0
2014-Apr-12 02:32N 35°23' E 139°39'0 0.0
2014-Apr-12 01:32N 35°23' E 139°39'0 0.0
2014-Apr-12 00:32N 35°23' E 139°39'0 0.0
2014-Apr-11 23:32N 35°23' E 139°39'0 0.0
2014-Apr-11 22:29N 35°23' E 139°39'0 0.0
2014-Apr-11 21:32N 35°23' E 139°39'0 0.0
2014-Apr-11 20:32N 35°23' E 139°39'0 0.0
2014-Apr-11 19:32N 35°23' E 139°39'0 0.0
2014-Apr-11 18:32N 35°23' E 139°39'0 0.0
2014-Apr-11 17:32N 35°23' E 139°39'0 0.0
2014-Apr-11 16:32N 35°23' E 139°39'0 0.0
2014-Apr-11 15:29N 35°23' E 139°39'0 0.0
2014-Apr-11 14:32N 35°23' E 139°39'0 0.0
2014-Apr-11 13:32N 35°23' E 139°39'0 0.0
2014-Apr-11 12:32N 35°23' E 139°39'0 0.0
2014-Apr-11 11:32N 35°23' E 139°39'0 0.0
2014-Apr-11 10:32N 35°23' E 139°39'0 0.0
2014-Apr-11 09:32N 35°23' E 139°39'0 0.0
2014-Apr-11 08:32N 35°23' E 139°39'0 0.0
2014-Apr-11 07:32N 35°23' E 139°39'0 0.0
2014-Apr-11 06:32N 35°23' E 139°39'0 0.0
2014-Apr-11 05:32N 35°23' E 139°39'0 0.0
2014-Apr-11 04:32N 35°23' E 139°39'0 0.0
2014-Apr-11 03:32N 35°23' E 139°39'0 0.0
2014-Apr-11 02:32N 35°23' E 139°39'0 0.0
2014-Apr-11 01:32N 35°23' E 139°39'0 0.0
2014-Apr-11 00:32N 35°23' E 139°39'0 0.0
2014-Apr-10 23:32N 35°23' E 139°39'0 0.4
2014-Apr-10 22:33N 35°23' E 139°39'5 5.1
2014-Apr-10 21:33N 35°19' E 139°43'9 9.3
2014-Apr-10 20:33N 35°10' E 139°46'1010.0
2014-Apr-10 19:31N 35°00' E 139°43'9 8.9
2014-Apr-10 18:28N 34°51' E 139°47'2 0.1
2014-Apr-09 08:11N 34°50' E 139°48'710.8
2014-Apr-09 07:33N 34°56' E 139°44'1110.8
2014-Apr-09 06:33N 35°07' E 139°45'1111.3
2014-Apr-09 05:33N 35°18' E 139°44'7 6.7
2014-Apr-09 04:33N 35°23' E 139°39'0 0.0
2014-Apr-09 03:32N 35°23' E 139°39'0 0.0
2014-Apr-09 02:23N 35°23' E 139°39'0 0.0
2014-Apr-09 01:29N 35°23' E 139°39'0 0.0
2014-Apr-09 00:32N 35°23' E 139°39'0 0.0
2014-Apr-08 23:32N 35°23' E 139°39'0 0.0
2014-Apr-08 22:32N 35°23' E 139°39'0 0.0
2014-Apr-08 21:32N 35°23' E 139°39'  

Dump ship's entire track history

sailing weather and tide predictions

Zenken Maru — JG5556 — position and weather